Time;durP1;ratioP1;P1;durP2;ratioP2;P2;SDS_P1;SDS_P2;PMS_P1;PMS_P2;Temp;Humidity;BMP_temperature;BMP_pressure;BME280_temperature;BME280_humidity;BME280_pressure;Samples;Min_cycle;Max_cycle;Signal;HPM_P1;HPM_P2
2023/05/21 00:01:56;;;;;;;3.10;2.90;;;23.20;51.20;;;;;;5073544;28;20052;-58
2023/05/21 00:04:24;;;;;;;3.28;3.00;;;23.20;51.20;;;;;;5071668;28;20599;-58
2023/05/21 00:06:51;;;;;;;3.20;3.00;;;23.10;51.20;;;;;;5070500;28;20080;-58
2023/05/21 00:09:18;;;;;;;3.15;2.85;;;23.10;51.30;;;;;;5072329;28;20127;-59
2023/05/21 00:11:45;;;;;;;3.17;2.97;;;23.20;51.30;;;;;;5072505;28;20080;-57
2023/05/21 00:14:12;;;;;;;4.35;3.95;;;23.10;51.30;;;;;;5072230;28;20058;-56
2023/05/21 00:16:40;;;;;;;3.80;3.40;;;23.10;51.30;;;;;;5072600;28;20048;-56
2023/05/21 00:19:09;;;;;;;3.25;2.97;;;23.10;51.30;;;;;;5071262;28;20055;-56
2023/05/21 00:21:37;;;;;;;4.57;2.70;;;23.10;51.30;;;;;;5072657;28;20052;-57
2023/05/21 00:24:04;;;;;;;2.92;2.72;;;23.10;51.30;;;;;;5072974;28;20080;-56
2023/05/21 00:26:32;;;;;;;3.35;3.05;;;23.10;51.30;;;;;;5072294;28;20094;-56
2023/05/21 00:28:59;;;;;;;3.70;3.40;;;23.10;51.30;;;;;;5073208;28;20413;-57
2023/05/21 00:31:26;;;;;;;3.17;2.88;;;23.10;51.40;;;;;;5060658;28;20138;-56
2023/05/21 00:33:53;;;;;;;3.97;3.50;;;23.10;51.40;;;;;;5051860;28;20163;-56
2023/05/21 00:36:22;;;;;;;2.95;2.75;;;23.10;51.40;;;;;;5050861;28;20102;-56
2023/05/21 00:38:50;;;;;;;3.28;2.97;;;23.00;51.40;;;;;;5052067;28;20102;-56
2023/05/21 00:41:17;;;;;;;2.97;2.72;;;23.00;51.40;;;;;;5050681;28;20084;-57
2023/05/21 00:43:45;;;;;;;3.30;3.00;;;23.00;51.40;;;;;;5053420;28;20083;-56
2023/05/21 00:46:16;;;;;;;3.42;3.13;;;23.00;51.40;;;;;;5053035;28;20059;-56
2023/05/21 00:48:45;;;;;;;3.65;3.35;;;23.00;51.40;;;;;;5050548;28;20049;-59
2023/05/21 00:51:17;;;;;;;3.70;3.40;;;23.00;51.50;;;;;;5052104;28;20099;-59
2023/05/21 00:53:45;;;;;;;3.63;3.33;;;23.00;51.50;;;;;;5051778;28;20559;-59
2023/05/21 00:56:12;;;;;;;3.33;3.03;;;23.00;51.50;;;;;;5051234;28;20401;-56
2023/05/21 00:58:40;;;;;;;3.00;2.70;;;23.00;51.50;;;;;;5053163;28;20103;-56
2023/05/21 01:01:12;;;;;;;3.53;3.17;;;23.00;51.50;;;;;;5051007;28;20087;-56
2023/05/21 01:03:40;;;;;;;3.67;3.33;;;23.00;51.50;;;;;;5052607;28;20074;-56
2023/05/21 01:06:09;;;;;;;3.50;3.13;;;23.00;51.50;;;;;;5051698;28;20052;-56
2023/05/21 01:08:37;;;;;;;3.28;2.97;;;23.00;51.60;;;;;;5051525;28;20061;-56
2023/05/21 01:11:05;;;;;;;3.60;3.30;;;22.90;51.50;;;;;;5055783;28;20459;-57
2023/05/21 01:13:37;;;;;;;2.85;2.65;;;22.90;51.60;;;;;;5055688;28;20045;-56
2023/05/21 01:16:05;;;;;;;3.10;2.90;;;22.90;51.60;;;;;;5055904;28;20136;-57
2023/05/21 01:18:34;;;;;;;3.65;3.35;;;22.90;51.70;;;;;;5056783;28;20053;-56
2023/05/21 01:21:01;;;;;;;3.42;3.00;;;22.90;51.70;;;;;;5055993;28;20532;-56
2023/05/21 01:23:28;;;;;;;3.15;2.85;;;22.90;51.80;;;;;;5056077;28;20543;-56
2023/05/21 01:25:55;;;;;;;3.03;2.72;;;22.90;51.70;;;;;;5056305;28;20095;-56
2023/05/21 01:28:23;;;;;;;2.78;2.58;;;22.90;51.80;;;;;;5056609;28;20132;-56
2023/05/21 01:30:50;;;;;;;4.05;3.65;;;22.90;51.80;;;;;;5055193;28;20077;-55
2023/05/21 01:33:37;;;;;;;3.50;3.20;;;22.90;51.80;;;;;;5056220;28;20053;-55
2023/05/21 01:36:23;;;;;;;2.65;2.45;;;22.90;51.80;;;;;;5056005;28;20056;-56
2023/05/21 01:39:01;;;;;;;3.70;3.13;;;22.90;51.80;;;;;;5055253;28;20095;-56
2023/05/21 01:41:35;;;;;;;3.15;2.92;;;22.90;51.80;;;;;;5055441;28;20083;-56
2023/05/21 01:44:06;;;;;;;3.63;3.20;;;22.90;51.80;;;;;;5055717;28;20045;-56
2023/05/21 01:46:37;;;;;;;3.20;2.90;;;22.90;51.80;;;;;;5055356;28;20132;-56
2023/05/21 01:49:06;;;;;;;3.97;3.58;;;22.90;51.80;;;;;;5055800;28;20088;-57
2023/05/21 01:51:34;;;;;;;3.90;3.60;;;22.90;51.70;;;;;;5054996;28;20088;-57
2023/05/21 01:54:02;;;;;;;3.92;3.17;;;22.90;51.70;;;;;;5054599;28;20045;-56
2023/05/21 01:56:32;;;;;;;3.80;3.40;;;22.90;51.70;;;;;;5054258;28;20045;-56
2023/05/21 01:58:59;;;;;;;3.55;3.25;;;22.90;51.70;;;;;;5055412;28;20057;-57
2023/05/21 02:01:28;;;;;;;3.42;3.03;;;22.90;51.70;;;;;;5054726;28;20171;-56
2023/05/21 02:03:56;;;;;;;2.90;2.70;;;22.90;51.70;;;;;;5055020;28;20064;-56
2023/05/21 02:06:24;;;;;;;3.63;3.33;;;22.90;51.70;;;;;;5054832;28;20053;-56
2023/05/21 02:08:51;;;;;;;3.15;2.85;;;22.90;51.70;;;;;;5053301;28;20084;-56
2023/05/21 02:11:18;;;;;;;3.05;2.83;;;22.80;51.70;;;;;;5053910;28;20080;-56
2023/05/21 02:13:45;;;;;;;2.95;2.75;;;22.80;51.70;;;;;;5053543;28;20071;-56
2023/05/21 02:16:14;;;;;;;3.30;3.00;;;22.80;51.70;;;;;;5058584;28;20044;-56
2023/05/21 02:18:45;;;;;;;3.08;2.88;;;22.80;51.70;;;;;;5073943;28;20404;-56
2023/05/21 02:21:13;;;;;;;4.13;3.03;;;22.80;51.80;;;;;;5072219;28;20041;-56
2023/05/21 02:23:41;;;;;;;3.22;2.92;;;22.80;51.70;;;;;;5073286;28;20048;-56
2023/05/21 02:26:08;;;;;;;3.28;3.03;;;22.80;51.80;;;;;;5074249;28;20054;-57
2023/05/21 02:28:35;;;;;;;4.78;3.05;;;22.80;51.80;;;;;;5073969;28;20048;-56
2023/05/21 02:31:02;;;;;;;3.67;3.10;;;22.80;51.80;;;;;;5073027;28;20048;-56
2023/05/21 02:33:30;;;;;;;3.35;3.05;;;22.80;51.80;;;;;;5073729;28;20565;-56
2023/05/21 02:35:57;;;;;;;3.20;2.90;;;22.80;51.80;;;;;;5071644;28;20044;-56
2023/05/21 02:38:24;;;;;;;3.58;3.28;;;22.80;51.80;;;;;;5073687;28;20489;-56
2023/05/21 02:40:52;;;;;;;3.10;2.80;;;22.70;51.80;;;;;;5073247;28;20052;-56
2023/05/21 02:43:19;;;;;;;3.38;3.08;;;22.70;51.80;;;;;;5074124;28;20105;-57
2023/05/21 02:45:47;;;;;;;3.00;2.80;;;22.80;51.90;;;;;;5072708;28;20078;-56
2023/05/21 02:48:14;;;;;;;3.38;3.08;;;22.70;51.80;;;;;;5073368;28;20051;-56
2023/05/21 02:50:41;;;;;;;3.63;3.33;;;22.70;51.90;;;;;;5073240;28;20044;-56
2023/05/21 02:53:08;;;;;;;4.30;2.97;;;22.70;51.90;;;;;;5073181;28;20117;-56
2023/05/21 02:55:35;;;;;;;2.97;2.65;;;22.70;51.90;;;;;;5073194;28;20044;-56
2023/05/21 02:58:03;;;;;;;3.05;2.75;;;22.70;51.90;;;;;;5073696;28;20114;-56
2023/05/21 03:00:30;;;;;;;3.53;3.22;;;22.70;51.90;;;;;;5074099;28;20122;-56
2023/05/21 03:02:58;;;;;;;3.30;2.95;;;22.70;51.90;;;;;;5031488;28;1219512;-56
2023/05/21 03:05:26;;;;;;;3.28;2.97;;;22.70;51.90;;;;;;5072836;28;20055;-57
2023/05/21 03:07:53;;;;;;;3.15;2.85;;;22.70;52.40;;;;;;5074661;28;20044;-56
2023/05/21 03:10:20;;;;;;;3.10;2.85;;;22.70;51.90;;;;;;5072461;28;20052;-56
2023/05/21 03:12:47;;;;;;;3.67;3.38;;;22.70;51.90;;;;;;5074480;28;20040;-57
2023/05/21 03:15:14;;;;;;;3.25;2.88;;;22.70;52.00;;;;;;5072346;28;20049;-55
2023/05/21 03:17:43;;;;;;;3.58;3.20;;;22.70;52.00;;;;;;5074384;28;20048;-56
2023/05/21 03:20:15;;;;;;;2.70;2.50;;;22.70;52.00;;;;;;5073821;28;20045;-57
2023/05/21 03:22:43;;;;;;;3.83;3.17;;;22.70;52.10;;;;;;5073692;28;20052;-56
2023/05/21 03:25:11;;;;;;;3.38;3.08;;;22.70;52.10;;;;;;5072937;28;20051;-56
2023/05/21 03:27:38;;;;;;;3.20;2.90;;;22.70;52.10;;;;;;5073423;28;20133;-56
2023/05/21 03:30:06;;;;;;;3.83;3.13;;;22.70;52.00;;;;;;5073668;28;20458;-57
2023/05/21 03:32:36;;;;;;;3.25;2.95;;;22.70;52.00;;;;;;5071898;28;20045;-56
2023/05/21 03:35:04;;;;;;;;;;;22.70;52.00;;;;;;5072946;28;20127;-56
2023/05/21 03:37:31;;;;;;;3.33;3.00;;;22.70;52.00;;;;;;5072449;28;19973;-56
2023/05/21 03:39:58;;;;;;;3.15;2.85;;;22.70;52.00;;;;;;5073015;28;20484;-57
2023/05/21 03:42:25;;;;;;;3.42;2.78;;;22.70;51.90;;;;;;5071724;28;20071;-57
2023/05/21 03:44:52;;;;;;;3.42;3.13;;;22.70;51.90;;;;;;5072489;28;20045;-57
2023/05/21 03:47:19;;;;;;;2.83;2.63;;;22.80;51.80;;;;;;5074206;28;20083;-57
2023/05/21 03:49:46;;;;;;;3.20;2.92;;;22.80;51.70;;;;;;5072901;28;20052;-57
2023/05/21 03:52:13;;;;;;;3.25;3.00;;;22.80;51.70;;;;;;5072851;28;20074;-57
2023/05/21 03:54:41;;;;;;;3.42;3.13;;;22.90;51.70;;;;;;5073716;28;20082;-57
2023/05/21 03:57:08;;;;;;;3.30;3.00;;;22.90;51.60;;;;;;5072564;28;20488;-57
2023/05/21 03:59:35;;;;;;;3.33;3.03;;;22.90;51.50;;;;;;5073152;28;20113;-57
2023/05/21 04:02:02;;;;;;;3.40;3.10;;;22.90;51.50;;;;;;5073529;28;20099;-57
2023/05/21 04:04:29;;;;;;;3.20;2.90;;;22.90;51.40;;;;;;5071976;28;20078;-57
2023/05/21 04:06:58;;;;;;;3.30;3.00;;;22.90;51.30;;;;;;5072544;28;20255;-57
2023/05/21 04:09:26;;;;;;;3.40;3.10;;;23.00;51.30;;;;;;5072945;28;20080;-57
2023/05/21 04:11:53;;;;;;;3.28;2.97;;;23.00;51.20;;;;;;5072073;28;20381;-57
2023/05/21 04:14:22;;;;;;;2.92;2.72;;;23.00;51.10;;;;;;5072354;28;20110;-57
2023/05/21 04:16:49;;;;;;;2.95;2.65;;;23.00;51.10;;;;;;5073536;28;20045;-57
2023/05/21 04:19:16;;;;;;;3.03;2.80;;;23.00;51.00;;;;;;5072518;28;20044;-57
2023/05/21 04:21:43;;;;;;;3.53;3.08;;;23.10;51.00;;;;;;5071786;28;20102;-57
2023/05/21 04:24:10;;;;;;;3.05;2.80;;;23.10;51.00;;;;;;5072686;28;20379;-57
2023/05/21 04:26:40;;;;;;;3.25;2.90;;;23.10;50.90;;;;;;5072226;28;20040;-57
2023/05/21 04:29:08;;;;;;;2.80;2.60;;;23.10;50.90;;;;;;5071038;28;20492;-56
2023/05/21 04:31:36;;;;;;;3.67;3.30;;;23.10;50.80;;;;;;5072661;28;20052;-58
2023/05/21 04:34:03;;;;;;;3.20;2.90;;;23.20;50.80;;;;;;5073351;28;20056;-57
2023/05/21 04:36:32;;;;;;;2.70;2.50;;;23.20;50.80;;;;;;5073052;28;20138;-57
2023/05/21 04:39:01;;;;;;;3.35;3.05;;;23.20;50.70;;;;;;5073500;28;20385;-57
2023/05/21 04:41:28;;;;;;;3.42;3.13;;;23.20;50.70;;;;;;5072235;28;20123;-58
2023/05/21 04:43:55;;;;;;;4.25;3.17;;;23.20;50.60;;;;;;5073054;28;20045;-57
2023/05/21 04:46:24;;;;;;;3.97;3.63;;;23.20;50.60;;;;;;5073020;28;20044;-57
2023/05/21 04:48:53;;;;;;;6.15;3.85;;;23.30;50.60;;;;;;5071438;28;20059;-57
2023/05/21 04:51:23;;;;;;;3.40;3.10;;;23.30;50.60;;;;;;5073163;28;20465;-57
2023/05/21 04:53:50;;;;;;;3.92;3.20;;;23.30;50.60;;;;;;5071933;28;20408;-57
2023/05/21 04:56:17;;;;;;;5.88;3.17;;;23.30;50.50;;;;;;5072032;28;20052;-57
2023/05/21 04:58:46;;;;;;;2.80;2.60;;;23.30;50.50;;;;;;5072103;28;20048;-57
2023/05/21 05:01:14;;;;;;;4.05;3.30;;;23.30;50.50;;;;;;5071721;28;20051;-57
2023/05/21 05:03:41;;;;;;;3.97;3.10;;;23.40;50.60;;;;;;5071085;28;20447;-57
2023/05/21 05:06:09;;;;;;;3.60;3.30;;;23.30;50.40;;;;;;5072583;28;20083;-57
2023/05/21 05:08:36;;;;;;;3.90;3.45;;;23.40;50.40;;;;;;5072270;28;20052;-57
2023/05/21 05:11:03;;;;;;;4.20;3.72;;;23.40;50.30;;;;;;5071524;28;20045;-57
2023/05/21 05:13:30;;;;;;;3.97;3.55;;;23.40;50.30;;;;;;5071096;28;20440;-57
2023/05/21 05:15:59;;;;;;;4.20;3.58;;;23.40;50.20;;;;;;5071136;28;20048;-57
2023/05/21 05:18:26;;;;;;;5.00;3.80;;;23.50;50.00;;;;;;5071457;28;20053;-57
2023/05/21 05:20:53;;;;;;;3.90;3.50;;;23.50;49.90;;;;;;5072379;28;20489;-57
2023/05/21 05:23:20;;;;;;;3.92;3.53;;;23.50;49.80;;;;;;5072696;28;20049;-57
2023/05/21 05:25:47;;;;;;;4.00;3.60;;;23.50;49.80;;;;;;5072566;28;20135;-57
2023/05/21 05:28:14;;;;;;;5.22;4.03;;;23.60;49.80;;;;;;5072577;28;20051;-57
2023/05/21 05:30:41;;;;;;;5.88;3.75;;;23.60;49.60;;;;;;5071865;28;20455;-57
2023/05/21 05:33:10;;;;;;;3.60;3.30;;;23.60;49.60;;;;;;5072513;28;20044;-57
2023/05/21 05:35:37;;;;;;;4.53;3.72;;;23.60;49.60;;;;;;5071730;28;20060;-57
2023/05/21 05:38:05;;;;;;;4.05;3.65;;;23.70;49.50;;;;;;5072192;28;20071;-57
2023/05/21 05:40:32;;;;;;;4.28;3.55;;;23.70;49.40;;;;;;5072423;28;20052;-57
2023/05/21 05:42:59;;;;;;;3.92;3.55;;;23.70;49.40;;;;;;5072735;28;20381;-57
2023/05/21 05:45:26;;;;;;;4.00;3.70;;;23.70;49.30;;;;;;5071590;28;20056;-57
2023/05/21 05:47:53;;;;;;;5.82;3.40;;;23.80;49.30;;;;;;5071292;28;20546;-57
2023/05/21 05:50:20;;;;;;;5.50;3.83;;;23.80;49.20;;;;;;5072056;28;20048;-57
2023/05/21 05:52:47;;;;;;;4.60;4.18;;;23.80;49.20;;;;;;5072477;28;20052;-60
2023/05/21 05:55:15;;;;;;;4.15;3.75;;;23.80;49.10;;;;;;5073494;28;20198;-56
2023/05/21 05:57:42;;;;;;;4.22;3.60;;;23.90;49.10;;;;;;5075945;28;20102;-57
2023/05/21 06:00:11;;;;;;;4.88;4.38;;;23.90;49.10;;;;;;5064576;28;20045;-57
2023/05/21 06:02:39;;;;;;;5.32;4.13;;;23.90;49.00;;;;;;5055949;28;20041;-57
2023/05/21 06:05:08;;;;;;;5.68;3.80;;;23.90;48.90;;;;;;5055726;28;20045;-57
2023/05/21 06:07:39;;;;;;;5.28;3.95;;;23.90;48.90;;;;;;5056265;28;20390;-57
2023/05/21 06:10:07;;;;;;;4.95;4.32;;;23.90;48.80;;;;;;5052951;28;20060;-57
2023/05/21 06:12:34;;;;;;;4.35;3.95;;;23.90;48.80;;;;;;5055470;28;20072;-57
2023/05/21 06:15:02;;;;;;;5.45;3.92;;;23.90;48.70;;;;;;5053656;28;20056;-58
2023/05/21 06:17:30;;;;;;;4.40;4.00;;;24.00;48.80;;;;;;5055088;28;20044;-57
2023/05/21 06:19:57;;;;;;;4.75;4.35;;;24.00;48.80;;;;;;5055318;28;20080;-56
2023/05/21 06:22:24;;;;;;;4.38;3.97;;;24.00;48.80;;;;;;5075462;28;20168;-57
2023/05/21 06:24:52;;;;;;;5.18;4.25;;;24.00;48.80;;;;;;5075254;28;20413;-57
2023/05/21 06:27:19;;;;;;;4.60;4.18;;;24.00;48.80;;;;;;5074601;28;20045;-58
2023/05/21 06:29:46;;;;;;;5.43;4.15;;;24.00;48.80;;;;;;5074869;28;20049;-57
2023/05/21 06:32:13;;;;;;;4.40;4.00;;;24.00;48.80;;;;;;5075007;28;20049;-57
2023/05/21 06:34:40;;;;;;;5.47;4.47;;;24.00;48.80;;;;;;5074672;28;20094;-57
2023/05/21 06:37:08;;;;;;;5.28;4.70;;;24.10;48.80;;;;;;5074079;28;20052;-58
2023/05/21 06:39:35;;;;;;;6.10;4.53;;;24.10;48.80;;;;;;5073992;28;20080;-57
2023/05/21 06:42:02;;;;;;;4.82;4.03;;;24.10;48.80;;;;;;5074578;28;20052;-58
2023/05/21 06:44:30;;;;;;;4.32;3.92;;;24.10;48.80;;;;;;5072697;28;20091;-58
2023/05/21 06:46:57;;;;;;;5.07;4.45;;;24.10;48.70;;;;;;5074005;28;20102;-59
2023/05/21 06:49:25;;;;;;;4.38;3.92;;;24.10;48.70;;;;;;5074390;28;20139;-57
2023/05/21 06:51:52;;;;;;;4.40;4.00;;;24.10;48.70;;;;;;5074393;28;20098;-57
2023/05/21 06:54:19;;;;;;;4.80;4.32;;;24.10;48.70;;;;;;5073952;28;20083;-57
2023/05/21 06:56:46;;;;;;;5.38;4.90;;;24.10;48.70;;;;;;5075045;28;20485;-57
2023/05/21 06:59:13;;;;;;;5.30;4.65;;;24.10;48.60;;;;;;5073164;28;20687;-57
2023/05/21 07:01:44;;;;;;;5.53;4.47;;;24.20;48.70;;;;;;5070280;28;20092;-57
2023/05/21 07:04:11;;;;;;;;;;;24.10;48.60;;;;;;5074114;28;20861;-58
2023/05/21 07:06:38;;;;;;;5.57;4.50;;;24.20;48.60;;;;;;5071478;28;19977;-58
2023/05/21 07:09:05;;;;;;;4.70;4.25;;;24.20;48.70;;;;;;5074476;28;20106;-58
2023/05/21 07:11:32;;;;;;;5.97;4.65;;;24.20;48.60;;;;;;5073758;28;20449;-58
2023/05/21 07:14:00;;;;;;;5.07;4.57;;;24.20;48.60;;;;;;5074180;28;20485;-57
2023/05/21 07:16:28;;;;;;;5.97;5.28;;;24.20;48.60;;;;;;5074570;28;20063;-62
2023/05/21 07:18:55;;;;;;;4.68;4.10;;;24.20;48.60;;;;;;5073846;28;20481;-58
2023/05/21 07:21:22;;;;;;;4.68;4.20;;;24.20;48.60;;;;;;5073790;28;20419;-59
2023/05/21 07:23:50;;;;;;;5.38;4.35;;;24.20;48.60;;;;;;5073858;28;20136;-58
2023/05/21 07:26:17;;;;;;;4.72;4.32;;;24.20;48.60;;;;;;5073345;28;20519;-57
2023/05/21 07:28:44;;;;;;;5.35;4.57;;;24.20;48.60;;;;;;5073917;28;20040;-58
2023/05/21 07:31:11;;;;;;;4.80;4.15;;;24.20;48.60;;;;;;5073557;28;20408;-58
2023/05/21 07:33:39;;;;;;;5.47;4.30;;;24.30;48.60;;;;;;5073603;28;20083;-61
2023/05/21 07:36:06;;;;;;;4.82;4.32;;;24.30;48.60;;;;;;5071988;28;20048;-58
2023/05/21 07:38:33;;;;;;;6.63;4.75;;;24.30;48.60;;;;;;5073468;28;20080;-57
2023/05/21 07:41:00;;;;;;;4.93;4.43;;;24.30;48.60;;;;;;5073107;28;20044;-58
2023/05/21 07:43:27;;;;;;;5.50;4.90;;;24.30;48.60;;;;;;5073444;28;20049;-58
2023/05/21 07:45:55;;;;;;;5.00;4.38;;;24.30;48.60;;;;;;5072195;28;20049;-56
2023/05/21 07:48:22;;;;;;;4.22;3.85;;;24.30;48.50;;;;;;5072278;28;20044;-57
2023/05/21 07:50:51;;;;;;;4.85;4.35;;;24.30;48.50;;;;;;5072475;28;20105;-57
2023/05/21 07:53:18;;;;;;;6.22;4.75;;;24.30;48.60;;;;;;5073745;28;20131;-57
2023/05/21 07:55:46;;;;;;;6.28;4.88;;;24.30;48.60;;;;;;5073833;28;20169;-58
2023/05/21 07:58:18;;;;;;;5.18;4.40;;;24.40;48.70;;;;;;5073590;28;20103;-57
2023/05/21 08:00:46;;;;;;;4.47;4.07;;;24.40;48.70;;;;;;5072865;28;20051;-58
2023/05/21 08:03:15;;;;;;;4.63;4.22;;;24.40;48.70;;;;;;5073421;28;20098;-58
2023/05/21 08:05:49;;;;;;;5.10;4.55;;;24.40;48.70;;;;;;5071685;28;20103;-58
2023/05/21 08:08:18;;;;;;;4.70;4.30;;;24.40;48.70;;;;;;5073357;28;20166;-58
2023/05/21 08:10:46;;;;;;;5.80;4.72;;;24.40;48.80;;;;;;5072394;28;20052;-58
2023/05/21 08:13:15;;;;;;;6.22;5.07;;;24.40;48.80;;;;;;5073370;28;20048;-58
2023/05/21 08:15:42;;;;;;;5.18;4.35;;;24.40;48.80;;;;;;5073756;28;20044;-58
2023/05/21 08:18:10;;;;;;;4.75;4.22;;;24.40;48.80;;;;;;5072852;28;20094;-58
2023/05/21 08:20:38;;;;;;;6.07;4.70;;;24.40;48.90;;;;;;5073331;28;20048;-58
2023/05/21 08:23:05;;;;;;;6.20;4.88;;;24.50;48.90;;;;;;5072990;28;20040;-57
2023/05/21 08:25:32;;;;;;;4.85;4.35;;;24.50;48.90;;;;;;5073476;28;20063;-57
2023/05/21 08:27:59;;;;;;;5.15;4.22;;;24.50;48.90;;;;;;5073343;28;20106;-57
2023/05/21 08:30:26;;;;;;;4.65;4.20;;;24.50;49.00;;;;;;5072502;28;20139;-57
2023/05/21 08:32:53;;;;;;;5.47;4.97;;;24.50;49.00;;;;;;5071890;28;20044;-57
2023/05/21 08:35:21;;;;;;;4.63;4.22;;;24.50;49.00;;;;;;5073426;28;20053;-58
2023/05/21 08:37:48;;;;;;;5.63;5.05;;;24.50;49.00;;;;;;5072173;28;20082;-58
2023/05/21 08:40:15;;;;;;;4.65;4.25;;;24.50;49.00;;;;;;5073061;28;20427;-58
2023/05/21 08:42:45;;;;;;;5.32;4.82;;;24.50;49.00;;;;;;5073433;28;20044;-57
2023/05/21 08:45:15;;;;;;;5.18;4.50;;;24.50;49.00;;;;;;5072435;28;20059;-58
2023/05/21 08:47:43;;;;;;;5.78;5.15;;;24.50;49.00;;;;;;5072633;28;20485;-58
2023/05/21 08:50:12;;;;;;;5.47;4.47;;;24.50;48.90;;;;;;5072036;28;20052;-58
2023/05/21 08:52:40;;;;;;;4.93;4.50;;;24.50;48.90;;;;;;5070864;28;20516;-58
2023/05/21 08:55:08;;;;;;;5.63;4.78;;;24.50;48.90;;;;;;5072606;28;20054;-58
2023/05/21 08:57:36;;;;;;;5.57;4.68;;;24.60;48.90;;;;;;5071997;28;20090;-58
2023/05/21 09:00:05;;;;;;;5.18;4.68;;;24.60;48.90;;;;;;5072625;28;20098;-58
2023/05/21 09:02:37;;;;;;;5.35;4.75;;;24.60;48.90;;;;;;5071782;28;20165;-58
2023/05/21 09:05:05;;;;;;;4.53;4.13;;;24.60;48.80;;;;;;5072815;28;20052;-58
2023/05/21 09:07:54;;;;;;;5.13;4.60;;;24.60;48.80;;;;;;5072834;28;20048;-57
2023/05/21 09:10:26;;;;;;;5.00;4.18;;;24.60;48.80;;;;;;5088616;28;20402;-58
2023/05/21 09:12:53;;;;;;;5.25;4.75;;;24.60;48.70;;;;;;5071522;28;20098;-58
2023/05/21 09:15:21;;;;;;;4.63;4.22;;;24.60;48.70;;;;;;5072928;28;20492;-58
2023/05/21 09:17:48;;;;;;;5.28;4.60;;;24.60;48.70;;;;;;5072680;28;20084;-57
2023/05/21 09:20:16;;;;;;;6.47;4.63;;;24.60;48.60;;;;;;5072898;28;20099;-58
2023/05/21 09:22:49;;;;;;;5.60;4.68;;;24.70;48.70;;;;;;5072190;28;20040;-57
2023/05/21 09:25:20;;;;;;;5.55;4.68;;;24.70;48.60;;;;;;5072935;28;20385;-58
2023/05/21 09:27:47;;;;;;;5.03;4.55;;;24.70;48.60;;;;;;5072674;28;20110;-58
2023/05/21 09:30:16;;;;;;;6.00;4.97;;;24.70;48.50;;;;;;5072856;28;20080;-57
2023/05/21 09:32:53;;;;;;;4.88;4.38;;;24.70;48.50;;;;;;5075464;28;20169;-58
2023/05/21 09:35:21;;;;;;;7.05;4.57;;;24.70;48.50;;;;;;5076455;28;20562;-58
2023/05/21 09:37:51;;;;;;;5.18;4.35;;;24.70;48.40;;;;;;5071788;28;20497;-58
2023/05/21 09:40:20;;;;;;;5.05;4.55;;;24.70;48.30;;;;;;5075058;28;20052;-57
2023/05/21 09:42:49;;;;;;;4.85;4.18;;;24.70;48.20;;;;;;5073451;28;20564;-58
2023/05/21 09:45:21;;;;;;;5.47;4.70;;;24.80;48.20;;;;;;5075035;28;20552;-58
2023/05/21 09:47:50;;;;;;;6.28;4.60;;;24.80;48.20;;;;;;5076410;28;20048;-58
2023/05/21 09:50:23;;;;;;;5.18;4.30;;;24.80;48.20;;;;;;5075212;28;20127;-58
2023/05/21 09:52:51;;;;;;;6.05;4.95;;;24.80;48.10;;;;;;5076318;28;20101;-58
2023/05/21 09:55:22;;;;;;;4.50;4.10;;;24.80;48.10;;;;;;5076049;28;20048;-57
2023/05/21 09:57:49;;;;;;;4.72;4.32;;;24.90;48.10;;;;;;5075431;28;20501;-58
2023/05/21 10:00:20;;;;;;;5.55;5.05;;;24.80;48.00;;;;;;5075436;28;20048;-57
2023/05/21 10:02:49;;;;;;;5.72;4.75;;;24.80;47.90;;;;;;5075665;28;20048;-57
2023/05/21 10:05:16;;;;;;;7.00;4.47;;;24.90;47.90;;;;;;5075822;28;20049;-56
2023/05/21 10:07:50;;;;;;;5.75;4.75;;;24.80;47.90;;;;;;5075624;28;20311;-58
2023/05/21 10:10:23;;;;;;;4.50;4.05;;;24.80;47.80;;;;;;5076102;28;20091;-58
2023/05/21 10:12:57;;;;;;;4.95;4.45;;;24.80;47.80;;;;;;5076213;28;20118;-58
2023/05/21 10:15:26;;;;;;;5.88;4.50;;;24.90;47.80;;;;;;5074154;28;20084;-56
2023/05/21 10:17:55;;;;;;;5.03;4.47;;;24.80;47.70;;;;;;5075265;28;20045;-57
2023/05/21 10:20:22;;;;;;;5.38;4.43;;;24.90;47.70;;;;;;5074434;28;20453;-57
2023/05/21 10:22:50;;;;;;;4.38;3.97;;;24.90;47.60;;;;;;5073331;28;20079;-57
2023/05/21 10:25:19;;;;;;;5.35;4.82;;;24.90;47.50;;;;;;5074418;28;20520;-58
2023/05/21 10:27:47;;;;;;;4.50;3.97;;;24.90;47.50;;;;;;5075922;28;20086;-58
2023/05/21 10:30:16;;;;;;;6.00;4.57;;;24.90;47.40;;;;;;5074305;28;20095;-58
2023/05/21 10:32:47;;;;;;;4.97;4.47;;;24.90;47.40;;;;;;5074466;28;20049;-57
2023/05/21 10:35:18;;;;;;;7.30;5.85;;;24.90;47.10;;;;;;5073900;28;20106;-56
2023/05/21 10:37:45;;;;;;;;;;;24.90;47.20;;;;;;5075698;28;20044;-57
2023/05/21 10:40:12;;;;;;;4.90;4.40;;;24.90;47.20;;;;;;5074380;28;20076;-58
2023/05/21 10:43:19;;;;;;;4.93;4.50;;;24.90;47.10;;;;;;5073931;28;20550;-58
2023/05/21 10:46:18;;;;;;;6.50;4.80;;;24.90;47.10;;;;;;5072836;28;20044;-58
2023/05/21 10:49:12;;;;;;;5.22;4.40;;;24.90;46.90;;;;;;5074661;28;20090;-57
2023/05/21 10:52:19;;;;;;;4.65;4.18;;;24.90;46.90;;;;;;5074317;28;20049;-58
2023/05/21 10:55:15;;;;;;;5.45;3.95;;;24.90;46.80;;;;;;5074768;28;20044;-57
2023/05/21 10:58:01;;;;;;;7.70;4.97;;;24.90;46.70;;;;;;5074297;28;20048;-58
2023/05/21 11:00:30;;;;;;;5.57;4.85;;;25.00;46.70;;;;;;5072963;28;20091;-57
2023/05/21 11:02:59;;;;;;;4.87;4.37;;;25.00;46.60;;;;;;5074237;28;20485;-58
2023/05/21 11:05:49;;;;;;;6.05;4.78;;;25.00;46.60;;;;;;5073936;28;20049;-57
2023/05/21 11:08:21;;;;;;;;;;;25.00;46.50;;;;;;5075535;28;20048;-57
2023/05/21 11:10:57;;;;;;;5.82;4.57;;;25.00;46.50;;;;;;5072108;28;20597;-58
2023/05/21 11:13:25;;;;;;;5.18;4.05;;;25.10;46.50;;;;;;5074385;28;20460;-57
2023/05/21 11:16:06;;;;;;;5.13;4.22;;;25.10;46.30;;;;;;5073385;28;20091;-58
2023/05/21 11:18:56;;;;;;;6.55;4.50;;;25.10;46.30;;;;;;5073383;28;20132;-58
2023/05/21 11:21:27;;;;;;;5.27;4.37;;;25.10;46.20;;;;;;5073371;28;20531;-58
2023/05/21 11:24:06;;;;;;;4.80;4.15;;;25.10;46.20;;;;;;5074207;28;20339;-58
2023/05/21 11:27:01;;;;;;;6.03;4.30;;;25.20;46.30;;;;;;5073483;28;20040;-57
2023/05/21 11:29:39;;;;;;;4.50;4.10;;;25.10;46.00;;;;;;5074080;28;20117;-58
2023/05/21 11:32:08;;;;;;;4.88;4.30;;;25.20;46.00;;;;;;5074605;28;20048;-57
2023/05/21 11:34:44;;;;;;;4.80;4.32;;;25.20;46.00;;;;;;5073087;28;20076;-57
2023/05/21 11:37:25;;;;;;;6.10;4.45;;;25.20;45.90;;;;;;5073638;28;20053;-57
2023/05/21 11:39:53;;;;;;;7.38;4.75;;;25.20;45.80;;;;;;5072628;28;20136;-58
2023/05/21 11:42:37;;;;;;;5.60;4.25;;;25.20;45.80;;;;;;5073791;28;20419;-56
2023/05/21 11:45:05;;;;;;;4.35;3.85;;;25.30;45.90;;;;;;5073857;28;20080;-58
2023/05/21 11:47:32;;;;;;;4.88;4.28;;;25.30;45.80;;;;;;5072995;28;20084;-58
2023/05/21 11:50:01;;;;;;;5.38;4.85;;;25.30;45.70;;;;;;5072194;28;20052;-57
2023/05/21 11:52:30;;;;;;;4.40;4.00;;;25.30;45.70;;;;;;5073637;28;20048;-56
2023/05/21 11:54:58;;;;;;;6.32;4.88;;;25.30;45.70;;;;;;5072753;28;20048;-56
2023/05/21 11:57:30;;;;;;;4.15;3.80;;;25.40;45.80;;;;;;5073901;28;20082;-56
2023/05/21 11:59:59;;;;;;;4.60;4.20;;;25.40;45.80;;;;;;5073323;28;20055;-56
2023/05/21 12:02:31;;;;;;;5.13;4.15;;;25.40;45.70;;;;;;5073401;28;20040;-56
2023/05/21 12:04:59;;;;;;;4.38;3.97;;;25.40;45.70;;;;;;5073994;28;20059;-56
2023/05/21 12:07:28;;;;;;;4.60;4.15;;;25.40;45.70;;;;;;5074101;28;20045;-55
2023/05/21 12:09:56;;;;;;;4.60;4.15;;;25.40;45.70;;;;;;5072715;28;20127;-56
2023/05/21 12:12:26;;;;;;;4.47;4.07;;;25.40;45.70;;;;;;5073423;28;20554;-56
2023/05/21 12:15:05;;;;;;;6.40;4.93;;;25.40;45.70;;;;;;5072997;28;20556;-56
2023/05/21 12:17:33;;;;;;;4.85;4.03;;;25.40;45.70;;;;;;5073259;28;20048;-56
2023/05/21 12:20:01;;;;;;;5.10;4.10;;;25.40;45.70;;;;;;5073656;28;20056;-56
2023/05/21 12:22:28;;;;;;;5.40;4.55;;;25.40;45.60;;;;;;5073424;28;20055;-56
2023/05/21 12:24:57;;;;;;;4.57;4.10;;;25.40;46.20;;;;;;5073315;28;20132;-56
2023/05/21 12:27:24;;;;;;;4.82;4.32;;;25.40;45.60;;;;;;5072037;28;20546;-56
2023/05/21 12:29:52;;;;;;;4.30;3.95;;;25.40;45.60;;;;;;5073607;28;20048;-58
2023/05/21 12:32:21;;;;;;;4.45;4.05;;;25.40;45.60;;;;;;5073093;28;20129;-56
2023/05/21 12:34:51;;;;;;;4.47;4.07;;;25.50;45.60;;;;;;5071917;28;20056;-56
2023/05/21 12:37:26;;;;;;;;;;;25.40;45.50;;;;;;5072549;28;20052;-56
2023/05/21 12:39:56;;;;;;;4.40;3.90;;;25.50;45.60;;;;;;5073305;28;20015;-58
2023/05/21 12:42:29;;;;;;;4.30;3.63;;;25.50;45.60;;;;;;5073149;28;20082;-56
2023/05/21 12:44:56;;;;;;;5.53;5.00;;;25.50;45.50;;;;;;5072052;28;20040;-56
2023/05/21 12:47:25;;;;;;;5.75;4.07;;;25.50;45.50;;;;;;5072466;28;20052;-56
2023/05/21 12:49:56;;;;;;;4.40;4.00;;;25.50;45.40;;;;;;5072314;28;20049;-56
2023/05/21 12:52:24;;;;;;;5.35;4.45;;;25.50;45.50;;;;;;5072964;28;20489;-56
2023/05/21 12:54:53;;;;;;;5.50;4.38;;;25.50;45.40;;;;;;5071054;28;20087;-56
2023/05/21 12:57:22;;;;;;;8.25;4.20;;;25.50;45.40;;;;;;5072745;28;20485;-56
2023/05/21 12:59:52;;;;;;;6.63;4.55;;;25.50;45.40;;;;;;5073025;28;20088;-56